sensor_id;sensor_type;location;lat;lon;timestamp;pressure;altitude;pressure_sealevel;temperature;humidity
1480;BME280;732;51.698;4.886;2023-05-19T00:01:30;102841.97;;;5.60;67.61
1480;BME280;732;51.698;4.886;2023-05-19T00:04:00;102814.63;;;5.44;67.84
1480;BME280;732;51.698;4.886;2023-05-19T00:06:31;102837.44;;;5.48;68.58
1480;BME280;732;51.698;4.886;2023-05-19T00:09:03;102838.94;;;5.52;68.59
1480;BME280;732;51.698;4.886;2023-05-19T00:11:34;102791.09;;;5.23;68.39
1480;BME280;732;51.698;4.886;2023-05-19T00:14:06;102783.13;;;5.23;67.91
1480;BME280;732;51.698;4.886;2023-05-19T00:16:36;102828.78;;;5.44;69.27
1480;BME280;732;51.698;4.886;2023-05-19T00:19:06;102810.59;;;5.23;69.84
1480;BME280;732;51.698;4.886;2023-05-19T00:21:36;102794.81;;;5.20;69.81
1480;BME280;732;51.698;4.886;2023-05-19T00:24:06;102792.06;;;5.22;69.60
1480;BME280;732;51.698;4.886;2023-05-19T00:26:34;102817.28;;;5.44;69.57
1480;BME280;732;51.698;4.886;2023-05-19T00:29:04;102814.41;;;5.47;69.22
1480;BME280;732;51.698;4.886;2023-05-19T00:31:32;102793.78;;;5.23;69.52
1480;BME280;732;51.698;4.886;2023-05-19T00:34:01;102808.69;;;5.26;69.82
1480;BME280;732;51.698;4.886;2023-05-19T00:36:30;102791.34;;;5.05;70.64
1480;BME280;732;51.698;4.886;2023-05-19T00:38:58;102827.31;;;5.26;70.29
1480;BME280;732;51.698;4.886;2023-05-19T00:41:27;102808.63;;;5.13;70.40
1480;BME280;732;51.698;4.886;2023-05-19T00:43:55;102825.75;;;5.09;71.14
1480;BME280;732;51.698;4.886;2023-05-19T00:46:24;102827.34;;;5.11;70.93
1480;BME280;732;51.698;4.886;2023-05-19T00:48:52;102820.72;;;5.04;71.25
1480;BME280;732;51.698;4.886;2023-05-19T00:51:22;102828.88;;;5.15;71.35
1480;BME280;732;51.698;4.886;2023-05-19T00:53:52;102767.16;;;4.81;70.72
1480;BME280;732;51.698;4.886;2023-05-19T00:56:20;102784.06;;;4.80;71.34
1480;BME280;732;51.698;4.886;2023-05-19T00:58:50;102790.41;;;4.92;71.11
1480;BME280;732;51.698;4.886;2023-05-19T01:01:19;102828.09;;;5.13;71.17
1480;BME280;732;51.698;4.886;2023-05-19T01:03:48;102826.03;;;5.04;71.84
1480;BME280;732;51.698;4.886;2023-05-19T01:06:17;102818.88;;;5.04;71.34
1480;BME280;732;51.698;4.886;2023-05-19T01:08:47;102823.84;;;4.96;71.71
1480;BME280;732;51.698;4.886;2023-05-19T01:11:19;102806.97;;;4.83;72.23
1480;BME280;732;51.698;4.886;2023-05-19T01:13:47;102802.47;;;4.83;72.22
1480;BME280;732;51.698;4.886;2023-05-19T01:16:22;102802.22;;;4.73;72.48
1480;BME280;732;51.698;4.886;2023-05-19T01:18:59;102797.19;;;4.69;72.50
1480;BME280;732;51.698;4.886;2023-05-19T01:21:55;102818.25;;;4.86;72.85
1480;BME280;732;51.698;4.886;2023-05-19T01:27:52;102781.78;;;4.60;73.08
1480;BME280;732;51.698;4.886;2023-05-19T01:30:29;102802.41;;;4.70;72.56
1480;BME280;732;51.698;4.886;2023-05-19T01:33:00;102804.22;;;4.55;74.00
1480;BME280;732;51.698;4.886;2023-05-19T01:35:30;102780.16;;;4.42;73.88
1480;BME280;732;51.698;4.886;2023-05-19T01:38:00;102793.84;;;4.51;73.56
1480;BME280;732;51.698;4.886;2023-05-19T01:40:29;102797.28;;;4.67;73.45
1480;BME280;732;51.698;4.886;2023-05-19T01:43:00;102805.53;;;4.77;73.04
1480;BME280;732;51.698;4.886;2023-05-19T01:45:32;102771.41;;;4.40;73.63
1480;BME280;732;51.698;4.886;2023-05-19T01:48:04;102767.84;;;4.56;73.14
1480;BME280;732;51.698;4.886;2023-05-19T01:50:37;102802.88;;;4.77;72.42
1480;BME280;732;51.698;4.886;2023-05-19T01:53:06;102767.38;;;4.64;72.43
1480;BME280;732;51.698;4.886;2023-05-19T01:55:38;102807.06;;;4.81;72.63
1480;BME280;732;51.698;4.886;2023-05-19T01:58:17;102781.78;;;4.74;72.13
1480;BME280;732;51.698;4.886;2023-05-19T02:00:55;102786.66;;;4.67;72.68
1480;BME280;732;51.698;4.886;2023-05-19T02:03:41;102798.91;;;4.70;72.75
1480;BME280;732;51.698;4.886;2023-05-19T02:06:22;102790.53;;;4.62;73.42
1480;BME280;732;51.698;4.886;2023-05-19T02:09:01;102788.47;;;4.52;73.23
1480;BME280;732;51.698;4.886;2023-05-19T02:11:36;102802.31;;;4.57;73.78
1480;BME280;732;51.698;4.886;2023-05-19T02:14:10;102800.97;;;4.50;73.78
1480;BME280;732;51.698;4.886;2023-05-19T02:16:44;102779.38;;;4.40;73.74
1480;BME280;732;51.698;4.886;2023-05-19T02:19:23;102793.53;;;4.26;74.79
1480;BME280;732;51.698;4.886;2023-05-19T02:21:54;102770.16;;;4.17;74.56
1480;BME280;732;51.698;4.886;2023-05-19T02:24:22;102799.13;;;4.36;74.51
1480;BME280;732;51.698;4.886;2023-05-19T02:26:51;102790.97;;;4.39;74.26
1480;BME280;732;51.698;4.886;2023-05-19T02:29:20;102790.28;;;4.36;74.29
1480;BME280;732;51.698;4.886;2023-05-19T02:31:50;102772.75;;;4.19;74.52
1480;BME280;732;51.698;4.886;2023-05-19T02:34:19;102753.25;;;4.04;74.90
1480;BME280;732;51.698;4.886;2023-05-19T02:36:47;102784.88;;;4.23;74.92
1480;BME280;732;51.698;4.886;2023-05-19T02:39:16;102780.72;;;4.19;75.39
1480;BME280;732;51.698;4.886;2023-05-19T02:41:44;102757.53;;;4.06;75.65
1480;BME280;732;51.698;4.886;2023-05-19T02:44:13;102775.47;;;4.17;75.26
1480;BME280;732;51.698;4.886;2023-05-19T02:46:41;102776.25;;;4.19;74.92
1480;BME280;732;51.698;4.886;2023-05-19T02:49:11;102775.19;;;4.22;74.92
1480;BME280;732;51.698;4.886;2023-05-19T02:51:39;102767.44;;;4.19;75.21
1480;BME280;732;51.698;4.886;2023-05-19T02:54:08;102756.78;;;4.19;75.01
1480;BME280;732;51.698;4.886;2023-05-19T02:56:36;102765.31;;;4.09;75.56
1480;BME280;732;51.698;4.886;2023-05-19T02:59:05;102761.13;;;4.20;75.27
1480;BME280;732;51.698;4.886;2023-05-19T03:01:33;102764.84;;;4.17;75.32
1480;BME280;732;51.698;4.886;2023-05-19T03:04:04;102769.78;;;4.23;74.73
1480;BME280;732;51.698;4.886;2023-05-19T03:06:34;102765.22;;;4.11;75.23
1480;BME280;732;51.698;4.886;2023-05-19T03:09:02;102758.56;;;4.04;76.08
1480;BME280;732;51.698;4.886;2023-05-19T03:11:30;102762.34;;;4.00;76.16
1480;BME280;732;51.698;4.886;2023-05-19T03:13:59;102758.16;;;3.96;76.21
1480;BME280;732;51.698;4.886;2023-05-19T03:16:27;102760.47;;;4.02;75.93
1480;BME280;732;51.698;4.886;2023-05-19T03:18:55;102761.72;;;4.10;75.58
1480;BME280;732;51.698;4.886;2023-05-19T03:21:24;102719.03;;;3.69;76.02
1480;BME280;732;51.698;4.886;2023-05-19T03:23:54;102765.09;;;3.98;76.11
1480;BME280;732;51.698;4.886;2023-05-19T03:26:22;102766.25;;;3.94;76.59
1480;BME280;732;51.698;4.886;2023-05-19T03:28:50;102763.97;;;4.02;75.94
1480;BME280;732;51.698;4.886;2023-05-19T03:31:19;102758.81;;;3.85;76.56
1480;BME280;732;51.698;4.886;2023-05-19T03:33:47;102763.47;;;3.96;76.46
1480;BME280;732;51.698;4.886;2023-05-19T03:36:15;102734.16;;;3.83;75.96
1480;BME280;732;51.698;4.886;2023-05-19T03:38:44;102761.25;;;4.04;75.68
1480;BME280;732;51.698;4.886;2023-05-19T03:41:14;102756.59;;;4.07;75.70
1480;BME280;732;51.698;4.886;2023-05-19T03:43:43;102731.72;;;3.94;75.63
1480;BME280;732;51.698;4.886;2023-05-19T03:46:11;102704.53;;;3.74;75.84
1480;BME280;732;51.698;4.886;2023-05-19T03:49:11;102751.19;;;4.09;75.39
1480;BME280;732;51.698;4.886;2023-05-19T03:51:58;102753.84;;;4.09;75.03
1480;BME280;732;51.698;4.886;2023-05-19T03:54:48;102762.19;;;4.17;74.60
1480;BME280;732;51.698;4.886;2023-05-19T03:57:20;102759.34;;;4.20;74.23
1480;BME280;732;51.698;4.886;2023-05-19T03:59:48;102754.78;;;4.08;73.85
1480;BME280;732;51.698;4.886;2023-05-19T04:02:16;102746.59;;;3.97;74.21
1480;BME280;732;51.698;4.886;2023-05-19T04:04:47;102768.84;;;4.10;74.64
1480;BME280;732;51.698;4.886;2023-05-19T04:07:16;102765.88;;;4.15;74.42
1480;BME280;732;51.698;4.886;2023-05-19T04:09:45;102766.19;;;4.10;74.50
1480;BME280;732;51.698;4.886;2023-05-19T04:12:14;102728.56;;;3.87;74.91
1480;BME280;732;51.698;4.886;2023-05-19T04:14:44;102762.47;;;4.13;74.28
1480;BME280;732;51.698;4.886;2023-05-19T04:17:12;102765.72;;;4.18;74.25
1480;BME280;732;51.698;4.886;2023-05-19T04:19:40;102700.59;;;3.82;74.11
1480;BME280;732;51.698;4.886;2023-05-19T04:22:09;102737.22;;;4.05;73.63
1480;BME280;732;51.698;4.886;2023-05-19T04:24:37;102763.91;;;4.18;74.17
1480;BME280;732;51.698;4.886;2023-05-19T04:27:06;102767.44;;;4.19;74.13
1480;BME280;732;51.698;4.886;2023-05-19T04:29:38;102775.88;;;4.25;74.54
1480;BME280;732;51.698;4.886;2023-05-19T04:32:09;102776.25;;;4.19;75.24
1480;BME280;732;51.698;4.886;2023-05-19T04:34:38;102780.97;;;4.29;75.34
1480;BME280;732;51.698;4.886;2023-05-19T04:37:15;102757.16;;;4.27;74.60
1480;BME280;732;51.698;4.886;2023-05-19T04:39:44;102762.88;;;4.35;74.83
1480;BME280;732;51.698;4.886;2023-05-19T04:42:13;102780.91;;;4.45;74.82
1480;BME280;732;51.698;4.886;2023-05-19T04:44:45;102772.59;;;4.51;74.82
1480;BME280;732;51.698;4.886;2023-05-19T04:47:17;102741.41;;;4.38;74.77
1480;BME280;732;51.698;4.886;2023-05-19T04:49:48;102786.94;;;4.63;74.89
1480;BME280;732;51.698;4.886;2023-05-19T04:52:16;102778.75;;;4.66;75.35
1480;BME280;732;51.698;4.886;2023-05-19T04:54:47;102776.09;;;4.66;74.86
1480;BME280;732;51.698;4.886;2023-05-19T04:57:16;102737.44;;;4.46;75.14
1480;BME280;732;51.698;4.886;2023-05-19T04:59:44;102783.69;;;4.86;74.82
1480;BME280;732;51.698;4.886;2023-05-19T05:02:15;102768.78;;;4.69;75.08
1480;BME280;732;51.698;4.886;2023-05-19T05:04:44;102790.63;;;4.89;74.76
1480;BME280;732;51.698;4.886;2023-05-19T05:07:12;102781.31;;;4.96;74.78
1480;BME280;732;51.698;4.886;2023-05-19T05:09:41;102782.34;;;4.94;75.09
1480;BME280;732;51.698;4.886;2023-05-19T05:12:12;102787.47;;;4.97;75.01
1480;BME280;732;51.698;4.886;2023-05-19T05:14:42;102791.44;;;5.04;74.62
1480;BME280;732;51.698;4.886;2023-05-19T05:17:12;102778.97;;;5.04;74.62
1480;BME280;732;51.698;4.886;2023-05-19T05:19:43;102775.53;;;5.17;74.40
1480;BME280;732;51.698;4.886;2023-05-19T05:22:13;102795.47;;;5.24;75.01
1480;BME280;732;51.698;4.886;2023-05-19T05:24:42;102772.19;;;5.28;74.34
1480;BME280;732;51.698;4.886;2023-05-19T05:27:10;102800.84;;;5.37;73.91
1480;BME280;732;51.698;4.886;2023-05-19T05:29:39;102796.69;;;5.33;74.43
1480;BME280;732;51.698;4.886;2023-05-19T05:32:09;102790.41;;;5.34;74.97
1480;BME280;732;51.698;4.886;2023-05-19T05:34:37;102778.72;;;5.36;74.75
1480;BME280;732;51.698;4.886;2023-05-19T05:37:08;102784.84;;;5.51;74.08
1480;BME280;732;51.698;4.886;2023-05-19T05:39:38;102792.72;;;5.53;74.14
1480;BME280;732;51.698;4.886;2023-05-19T05:42:06;102796.41;;;5.65;74.44
1480;BME280;732;51.698;4.886;2023-05-19T05:44:37;102799.91;;;5.65;74.14
1480;BME280;732;51.698;4.886;2023-05-19T05:47:07;102805.81;;;5.83;73.86
1480;BME280;732;51.698;4.886;2023-05-19T05:49:38;102805.59;;;5.86;73.87
1480;BME280;732;51.698;4.886;2023-05-19T05:52:11;102802.13;;;5.99;73.27
1480;BME280;732;51.698;4.886;2023-05-19T05:54:46;102806.28;;;6.03;72.94
1480;BME280;732;51.698;4.886;2023-05-19T05:57:18;102798.09;;;6.06;73.34
1480;BME280;732;51.698;4.886;2023-05-19T05:59:48;102781.44;;;6.15;72.82
1480;BME280;732;51.698;4.886;2023-05-19T06:02:16;102794.56;;;6.31;72.59
1480;BME280;732;51.698;4.886;2023-05-19T06:04:45;102796.94;;;6.23;72.93
1480;BME280;732;51.698;4.886;2023-05-19T06:07:15;102797.47;;;6.28;72.86
1480;BME280;732;51.698;4.886;2023-05-19T06:09:44;102795.91;;;6.39;72.91
1480;BME280;732;51.698;4.886;2023-05-19T06:12:14;102803.78;;;6.53;72.68
1480;BME280;732;51.698;4.886;2023-05-19T06:14:46;102791.84;;;6.72;71.79
1480;BME280;732;51.698;4.886;2023-05-19T06:17:23;102766.78;;;6.48;72.25
1480;BME280;732;51.698;4.886;2023-05-19T06:19:52;102793.09;;;6.66;72.17
1480;BME280;732;51.698;4.886;2023-05-19T06:22:21;102795.94;;;6.89;71.89
1480;BME280;732;51.698;4.886;2023-05-19T06:24:49;102791.19;;;7.05;71.17
1480;BME280;732;51.698;4.886;2023-05-19T06:27:18;102789.91;;;7.11;71.33
1480;BME280;732;51.698;4.886;2023-05-19T06:29:47;102794.69;;;7.19;71.30
1480;BME280;732;51.698;4.886;2023-05-19T06:32:15;102785.91;;;7.29;70.76
1480;BME280;732;51.698;4.886;2023-05-19T06:34:44;102771.75;;;7.16;70.30
1480;BME280;732;51.698;4.886;2023-05-19T06:37:22;102772.94;;;7.12;70.35
1480;BME280;732;51.698;4.886;2023-05-19T06:39:52;102794.75;;;7.30;70.05
1480;BME280;732;51.698;4.886;2023-05-19T06:42:21;102780.75;;;7.39;70.06
1480;BME280;732;51.698;4.886;2023-05-19T06:44:57;102772.16;;;7.47;69.75
1480;BME280;732;51.698;4.886;2023-05-19T06:47:26;102800.19;;;7.77;69.35
1480;BME280;732;51.698;4.886;2023-05-19T06:49:55;102804.50;;;7.91;69.47
1480;BME280;732;51.698;4.886;2023-05-19T06:52:31;102801.38;;;7.97;69.47
1480;BME280;732;51.698;4.886;2023-05-19T06:55:00;102774.13;;;7.92;68.78
1480;BME280;732;51.698;4.886;2023-05-19T06:57:30;102803.28;;;7.95;68.36
1480;BME280;732;51.698;4.886;2023-05-19T07:00:00;102799.13;;;8.15;68.49
1480;BME280;732;51.698;4.886;2023-05-19T07:02:29;102802.66;;;8.27;67.90
1480;BME280;732;51.698;4.886;2023-05-19T07:04:58;102801.84;;;8.38;67.61
1480;BME280;732;51.698;4.886;2023-05-19T07:07:26;102793.94;;;8.36;67.52
1480;BME280;732;51.698;4.886;2023-05-19T07:09:57;102803.91;;;8.57;67.15
1480;BME280;732;51.698;4.886;2023-05-19T07:12:26;102766.31;;;8.58;66.87
1480;BME280;732;51.698;4.886;2023-05-19T07:14:55;102796.63;;;8.82;66.38
1480;BME280;732;51.698;4.886;2023-05-19T07:17:24;102796.75;;;8.80;65.77
1480;BME280;732;51.698;4.886;2023-05-19T07:19:52;102795.59;;;9.17;65.63
1480;BME280;732;51.698;4.886;2023-05-19T07:22:20;102788.63;;;9.25;64.66
1480;BME280;732;51.698;4.886;2023-05-19T07:24:50;102773.16;;;9.29;64.42
1480;BME280;732;51.698;4.886;2023-05-19T07:27:20;102762.56;;;9.27;63.76
1480;BME280;732;51.698;4.886;2023-05-19T07:29:48;102788.09;;;9.75;63.76
1480;BME280;732;51.698;4.886;2023-05-19T07:32:16;102789.56;;;10.22;62.97
1480;BME280;732;51.698;4.886;2023-05-19T07:34:45;102763.13;;;10.17;61.50
1480;BME280;732;51.698;4.886;2023-05-19T07:37:13;102781.88;;;10.38;60.29
1480;BME280;732;51.698;4.886;2023-05-19T07:39:42;102786.19;;;10.82;58.79
1480;BME280;732;51.698;4.886;2023-05-19T07:42:10;102787.19;;;10.60;59.67
1480;BME280;732;51.698;4.886;2023-05-19T07:44:40;102790.28;;;10.55;61.15
1480;BME280;732;51.698;4.886;2023-05-19T07:47:08;102780.03;;;11.11;60.33
1480;BME280;732;51.698;4.886;2023-05-19T07:49:36;102785.66;;;12.25;58.11
1480;BME280;732;51.698;4.886;2023-05-19T07:52:05;102759.50;;;13.11;52.11
1480;BME280;732;51.698;4.886;2023-05-19T07:54:34;102782.88;;;13.83;50.23
1480;BME280;732;51.698;4.886;2023-05-19T07:57:02;102776.47;;;14.63;49.57
1480;BME280;732;51.698;4.886;2023-05-19T07:59:30;102756.56;;;15.31;46.83
1480;BME280;732;51.698;4.886;2023-05-19T08:02:00;102769.84;;;16.32;43.57
1480;BME280;732;51.698;4.886;2023-05-19T08:04:28;102776.81;;;16.82;43.71
1480;BME280;732;51.698;4.886;2023-05-19T08:06:57;102765.09;;;17.13;43.53
1480;BME280;732;51.698;4.886;2023-05-19T08:09:25;102751.75;;;17.58;41.22
1480;BME280;732;51.698;4.886;2023-05-19T08:11:53;102756.50;;;18.24;41.43
1480;BME280;732;51.698;4.886;2023-05-19T08:14:22;102755.84;;;18.52;40.41
1480;BME280;732;51.698;4.886;2023-05-19T08:16:50;102756.19;;;18.34;39.25
1480;BME280;732;51.698;4.886;2023-05-19T08:19:20;102758.91;;;18.19;40.11
1480;BME280;732;51.698;4.886;2023-05-19T08:21:48;102746.47;;;17.95;39.31
1480;BME280;732;51.698;4.886;2023-05-19T08:24:17;102737.91;;;17.83;40.60
1480;BME280;732;51.698;4.886;2023-05-19T08:26:45;102725.66;;;17.72;40.84
1480;BME280;732;51.698;4.886;2023-05-19T08:29:13;102737.38;;;18.33;40.33
1480;BME280;732;51.698;4.886;2023-05-19T08:31:42;102749.81;;;18.72;38.98
1480;BME280;732;51.698;4.886;2023-05-19T08:34:10;102743.06;;;19.04;39.16
1480;BME280;732;51.698;4.886;2023-05-19T08:36:40;102722.44;;;18.73;38.84
1480;BME280;732;51.698;4.886;2023-05-19T08:39:08;102731.38;;;19.25;39.26
1480;BME280;732;51.698;4.886;2023-05-19T08:41:37;102736.03;;;19.60;37.91
1480;BME280;732;51.698;4.886;2023-05-19T08:44:05;102731.63;;;19.87;37.98
1480;BME280;732;51.698;4.886;2023-05-19T08:46:34;102724.34;;;20.30;37.12
1480;BME280;732;51.698;4.886;2023-05-19T08:49:10;102729.31;;;20.61;35.70
1480;BME280;732;51.698;4.886;2023-05-19T08:51:48;102732.97;;;20.75;35.02
1480;BME280;732;51.698;4.886;2023-05-19T08:54:24;102714.31;;;20.92;35.74
1480;BME280;732;51.698;4.886;2023-05-19T08:56:56;102726.94;;;21.13;35.80
1480;BME280;732;51.698;4.886;2023-05-19T08:59:26;102722.34;;;21.14;35.91
1480;BME280;732;51.698;4.886;2023-05-19T09:01:55;102724.41;;;20.98;36.17
1480;BME280;732;51.698;4.886;2023-05-19T09:04:24;102728.72;;;20.66;35.84
1480;BME280;732;51.698;4.886;2023-05-19T09:06:57;102730.25;;;20.75;36.94
1480;BME280;732;51.698;4.886;2023-05-19T09:09:29;102730.66;;;20.79;35.82
1480;BME280;732;51.698;4.886;2023-05-19T09:11:57;102720.63;;;20.93;35.96
1480;BME280;732;51.698;4.886;2023-05-19T09:14:26;102721.00;;;20.76;35.54
1480;BME280;732;51.698;4.886;2023-05-19T09:16:54;102729.22;;;20.41;36.09
1480;BME280;732;51.698;4.886;2023-05-19T09:19:27;102720.59;;;20.31;36.54
1480;BME280;732;51.698;4.886;2023-05-19T09:22:02;102726.97;;;20.03;36.84
1480;BME280;732;51.698;4.886;2023-05-19T09:24:31;102727.84;;;19.82;37.26
1480;BME280;732;51.698;4.886;2023-05-19T09:27:00;102726.00;;;19.61;37.77
1480;BME280;732;51.698;4.886;2023-05-19T09:29:29;102730.50;;;19.03;36.75
1480;BME280;732;51.698;4.886;2023-05-19T09:31:57;102707.94;;;18.88;38.16
1480;BME280;732;51.698;4.886;2023-05-19T09:34:27;102719.94;;;18.93;38.70
1480;BME280;732;51.698;4.886;2023-05-19T09:36:55;102700.63;;;18.88;39.45
1480;BME280;732;51.698;4.886;2023-05-19T09:39:27;102711.31;;;18.90;39.10
1480;BME280;732;51.698;4.886;2023-05-19T09:41:55;102714.34;;;19.17;39.18
1480;BME280;732;51.698;4.886;2023-05-19T09:44:25;102713.72;;;19.43;38.23
1480;BME280;732;51.698;4.886;2023-05-19T09:46:56;102709.34;;;19.77;38.31
1480;BME280;732;51.698;4.886;2023-05-19T09:49:28;102715.16;;;19.96;37.77
1480;BME280;732;51.698;4.886;2023-05-19T09:52:00;102690.16;;;20.27;37.46
1480;BME280;732;51.698;4.886;2023-05-19T09:54:33;102700.97;;;20.49;37.55
1480;BME280;732;51.698;4.886;2023-05-19T09:57:03;102712.63;;;20.78;36.62
1480;BME280;732;51.698;4.886;2023-05-19T09:59:35;102712.41;;;20.73;35.79
1480;BME280;732;51.698;4.886;2023-05-19T10:02:05;102716.41;;;20.90;34.38
1480;BME280;732;51.698;4.886;2023-05-19T10:04:36;102712.47;;;21.13;33.52
1480;BME280;732;51.698;4.886;2023-05-19T10:07:05;102692.34;;;19.68;33.18
1480;BME280;732;51.698;4.886;2023-05-19T10:09:36;102707.50;;;19.49;34.18
1480;BME280;732;51.698;4.886;2023-05-19T10:12:07;102696.50;;;19.36;35.10
1480;BME280;732;51.698;4.886;2023-05-19T10:14:36;102700.13;;;19.43;35.11
1480;BME280;732;51.698;4.886;2023-05-19T10:17:05;102690.47;;;19.40;35.77
1480;BME280;732;51.698;4.886;2023-05-19T10:19:35;102694.47;;;19.45;35.16
1480;BME280;732;51.698;4.886;2023-05-19T10:22:04;102699.00;;;19.59;35.47
1480;BME280;732;51.698;4.886;2023-05-19T10:24:32;102697.88;;;19.82;35.29
1480;BME280;732;51.698;4.886;2023-05-19T10:27:06;102696.13;;;20.02;34.94
1480;BME280;732;51.698;4.886;2023-05-19T10:29:38;102691.41;;;20.18;35.20
1480;BME280;732;51.698;4.886;2023-05-19T10:32:12;102658.91;;;20.16;35.04
1480;BME280;732;51.698;4.886;2023-05-19T10:35:23;102681.75;;;20.22;33.64
1480;BME280;732;51.698;4.886;2023-05-19T10:38:09;102691.91;;;20.42;34.26
1480;BME280;732;51.698;4.886;2023-05-19T10:40:57;102696.19;;;20.64;34.46
1480;BME280;732;51.698;4.886;2023-05-19T10:43:50;102685.75;;;20.81;34.11
1480;BME280;732;51.698;4.886;2023-05-19T10:46:23;102662.72;;;20.97;33.97
1480;BME280;732;51.698;4.886;2023-05-19T10:48:53;102667.50;;;21.02;31.90
1480;BME280;732;51.698;4.886;2023-05-19T10:51:29;102682.22;;;21.14;31.83
1480;BME280;732;51.698;4.886;2023-05-19T10:54:00;102684.06;;;20.87;30.22
1480;BME280;732;51.698;4.886;2023-05-19T10:56:30;102661.22;;;20.81;33.09
1480;BME280;732;51.698;4.886;2023-05-19T10:59:01;102662.28;;;21.20;34.06
1480;BME280;732;51.698;4.886;2023-05-19T11:01:32;102665.63;;;21.23;31.14
1480;BME280;732;51.698;4.886;2023-05-19T11:04:06;102658.69;;;20.93;29.95
1480;BME280;732;51.698;4.886;2023-05-19T11:06:35;102664.78;;;21.02;31.36
1480;BME280;732;51.698;4.886;2023-05-19T11:09:12;102642.13;;;20.81;32.03
1480;BME280;732;51.698;4.886;2023-05-19T11:11:46;102659.34;;;21.09;32.09
1480;BME280;732;51.698;4.886;2023-05-19T11:14:18;102651.41;;;20.38;29.45
1480;BME280;732;51.698;4.886;2023-05-19T11:16:49;102669.50;;;20.46;31.87
1480;BME280;732;51.698;4.886;2023-05-19T11:19:19;102660.53;;;20.66;31.45
1480;BME280;732;51.698;4.886;2023-05-19T11:21:52;102667.72;;;20.87;32.94
1480;BME280;732;51.698;4.886;2023-05-19T11:24:35;102673.63;;;21.04;31.25
1480;BME280;732;51.698;4.886;2023-05-19T11:27:27;102658.94;;;21.18;30.72
1480;BME280;732;51.698;4.886;2023-05-19T11:30:00;102651.16;;;21.15;29.62
1480;BME280;732;51.698;4.886;2023-05-19T11:32:33;102655.56;;;21.43;29.80
1480;BME280;732;51.698;4.886;2023-05-19T11:35:06;102658.50;;;21.55;30.13
1480;BME280;732;51.698;4.886;2023-05-19T11:37:35;102659.31;;;21.76;29.46
1480;BME280;732;51.698;4.886;2023-05-19T11:40:07;102638.94;;;21.65;28.67
1480;BME280;732;51.698;4.886;2023-05-19T11:42:36;102652.97;;;21.89;30.80
1480;BME280;732;51.698;4.886;2023-05-19T11:45:08;102647.72;;;21.80;28.99
1480;BME280;732;51.698;4.886;2023-05-19T11:47:36;102654.00;;;21.88;29.43
1480;BME280;732;51.698;4.886;2023-05-19T11:50:25;102644.53;;;21.90;29.92
1480;BME280;732;51.698;4.886;2023-05-19T11:52:54;102629.78;;;21.98;28.26
1480;BME280;732;51.698;4.886;2023-05-19T11:55:23;102642.84;;;21.96;27.59
1480;BME280;732;51.698;4.886;2023-05-19T11:57:59;102619.56;;;21.80;27.74
1480;BME280;732;51.698;4.886;2023-05-19T12:00:37;102644.66;;;22.22;27.92
1480;BME280;732;51.698;4.886;2023-05-19T12:03:07;102646.75;;;22.20;30.37
1480;BME280;732;51.698;4.886;2023-05-19T12:05:41;102635.88;;;22.07;27.63
1480;BME280;732;51.698;4.886;2023-05-19T12:08:11;102639.81;;;21.45;27.16
1480;BME280;732;51.698;4.886;2023-05-19T12:10:39;102636.25;;;21.11;26.50
1480;BME280;732;51.698;4.886;2023-05-19T12:13:08;102630.56;;;20.79;26.45
1480;BME280;732;51.698;4.886;2023-05-19T12:15:38;102627.22;;;20.91;29.13
1480;BME280;732;51.698;4.886;2023-05-19T12:18:06;102615.38;;;20.50;27.39
1480;BME280;732;51.698;4.886;2023-05-19T12:20:35;102610.63;;;20.65;28.36
1480;BME280;732;51.698;4.886;2023-05-19T12:23:03;102616.78;;;20.32;28.29
1480;BME280;732;51.698;4.886;2023-05-19T12:25:32;102629.34;;;20.20;28.44
1480;BME280;732;51.698;4.886;2023-05-19T12:28:01;102623.00;;;20.06;31.19
1480;BME280;732;51.698;4.886;2023-05-19T12:30:31;102592.69;;;20.36;31.74
1480;BME280;732;51.698;4.886;2023-05-19T12:33:02;102625.28;;;20.71;31.08
1480;BME280;732;51.698;4.886;2023-05-19T12:35:31;102617.13;;;20.71;28.32
1480;BME280;732;51.698;4.886;2023-05-19T12:38:04;102604.97;;;21.00;29.23
1480;BME280;732;51.698;4.886;2023-05-19T12:40:34;102603.06;;;21.21;32.35
1480;BME280;732;51.698;4.886;2023-05-19T12:43:04;102599.03;;;21.57;32.59
1480;BME280;732;51.698;4.886;2023-05-19T12:45:34;102594.94;;;21.93;31.78
1480;BME280;732;51.698;4.886;2023-05-19T12:48:09;102606.19;;;22.17;31.63
1480;BME280;732;51.698;4.886;2023-05-19T12:50:39;102601.19;;;21.08;27.60
1480;BME280;732;51.698;4.886;2023-05-19T12:53:09;102592.81;;;20.76;27.03
1480;BME280;732;51.698;4.886;2023-05-19T12:55:38;102595.31;;;20.91;28.27
1480;BME280;732;51.698;4.886;2023-05-19T12:58:10;102594.88;;;20.94;29.47
1480;BME280;732;51.698;4.886;2023-05-19T13:00:43;102590.69;;;20.71;28.54
1480;BME280;732;51.698;4.886;2023-05-19T13:03:17;102587.53;;;20.68;28.31
1480;BME280;732;51.698;4.886;2023-05-19T13:05:47;102537.16;;;20.91;30.26
1480;BME280;732;51.698;4.886;2023-05-19T13:08:18;102587.69;;;21.60;30.59
1480;BME280;732;51.698;4.886;2023-05-19T13:10:47;102586.06;;;21.98;30.58
1480;BME280;732;51.698;4.886;2023-05-19T13:13:17;102571.34;;;21.99;31.02
1480;BME280;732;51.698;4.886;2023-05-19T13:15:46;102563.84;;;22.26;29.81
1480;BME280;732;51.698;4.886;2023-05-19T13:18:17;102573.44;;;22.68;30.06
1480;BME280;732;51.698;4.886;2023-05-19T13:20:46;102518.50;;;22.69;29.73
1480;BME280;732;51.698;4.886;2023-05-19T13:23:16;102550.88;;;23.04;28.52
1480;BME280;732;51.698;4.886;2023-05-19T13:25:45;102566.03;;;23.00;26.57
1480;BME280;732;51.698;4.886;2023-05-19T13:28:13;102561.53;;;22.87;25.87
1480;BME280;732;51.698;4.886;2023-05-19T13:30:43;102557.66;;;22.95;27.37
1480;BME280;732;51.698;4.886;2023-05-19T13:33:11;102557.19;;;22.47;24.86
1480;BME280;732;51.698;4.886;2023-05-19T13:35:41;102561.28;;;22.63;28.84
1480;BME280;732;51.698;4.886;2023-05-19T13:38:09;102547.47;;;22.52;27.72
1480;BME280;732;51.698;4.886;2023-05-19T13:40:38;102537.06;;;22.10;27.87
1480;BME280;732;51.698;4.886;2023-05-19T13:43:07;102521.47;;;22.10;26.93
1480;BME280;732;51.698;4.886;2023-05-19T13:45:36;102553.75;;;22.59;27.75
1480;BME280;732;51.698;4.886;2023-05-19T13:48:05;102541.16;;;22.83;28.70
1480;BME280;732;51.698;4.886;2023-05-19T13:50:34;102519.84;;;22.60;26.20